METAR Data
IDs: Format: Raw Decoded Include TAF

Data at: 0136 UTC 06 Dec 2019

KRBW 060115Z AUTO 00000KT 10SM CLR 03/02 A3020 RMK AO2
KRBW 060055Z AUTO 00000KT 10SM CLR 04/02 A3019 RMK AO2
KRBW 060035Z AUTO 00000KT 10SM CLR 05/03 A3019 RMK AO2
KRBW 060015Z AUTO 00000KT 10SM CLR 05/03 A3018 RMK AO2
KRBW 052355Z AUTO 00000KT 10SM CLR 07/03 A3017 RMK AO2
KRBW 052335Z AUTO 00000KT 10SM CLR 07/02 A3017 RMK AO2
KRBW 052315Z AUTO 00000KT 10SM CLR 07/02 A3016 RMK AO2
KRBW 052255Z AUTO 00000KT 10SM CLR 08/03 A3016 RMK AO2
KRBW 052235Z AUTO 00000KT 10SM CLR 10/03 A3014 RMK AO2
KRBW 052215Z AUTO 00000KT 10SM CLR 13/03 A3014 RMK AO2
KRBW 052155Z AUTO 00000KT 10SM CLR 16/02 A3013 RMK AO2
KRBW 052135Z AUTO 00000KT 10SM CLR 17/M01 A3012 RMK AO2
KRBW 052115Z AUTO 00000KT 10SM CLR 18/M02 A3012 RMK AO2
KRBW 052055Z AUTO 00000KT 10SM CLR 18/M02 A3011 RMK AO2
KRBW 052035Z AUTO 00000KT 10SM CLR 18/M02 A3010 RMK AO2
KRBW 052015Z AUTO 00000KT 10SM CLR 18/M02 A3010 RMK AO2
KRBW 051955Z AUTO 00000KT 10SM CLR 18/M02 A3009 RMK AO2
KRBW 051935Z AUTO 00000KT 10SM CLR 18/M03 A3009 RMK AO2
KRBW 051915Z AUTO 29004KT 10SM CLR 18/M03 A3009 RMK AO2
KRBW 051855Z AUTO 31004KT 10SM CLR 18/M03 A3009 RMK AO2
KRBW 051835Z AUTO 36003KT 10SM CLR 18/M05 A3010 RMK AO2
KRBW 051815Z AUTO 33003KT 10SM CLR 17/M04 A3010 RMK AO2
KRBW 051755Z AUTO 32005KT 10SM CLR 18/M03 A3010 RMK AO2
KRBW 051735Z AUTO 35006KT 10SM CLR 17/M02 A3011 RMK AO2
KRBW 051715Z AUTO 36007KT 10SM CLR 17/M02 A3011 RMK AO2
KRBW 051655Z AUTO 34007KT 10SM CLR 16/M01 A3012 RMK AO2
KRBW 051635Z AUTO 35008KT 320V020 10SM CLR 16/M01 A3013 RMK AO2
KRBW 051615Z AUTO 36008G17KT 10SM CLR 15/M01 A3013 RMK AO2
KRBW 051555Z AUTO 36012G16KT 10SM CLR 15/M01 A3013 RMK AO2
KRBW 051535Z AUTO 34010G14KT 10SM CLR 15/M01 A3013 RMK AO2
KRBW 051515Z AUTO 36005KT 10SM CLR 14/00 A3013 RMK AO2
KRBW 051455Z AUTO 34005KT 10SM CLR 13/01 A3012 RMK AO2
KRBW 051435Z AUTO 35005KT 10SM CLR 12/01 A3011 RMK AO2
KRBW 051415Z AUTO 31006KT 10SM CLR 10/01 A3010 RMK AO2
KRBW 051355Z AUTO 31004KT 10SM CLR 08/01 A3009 RMK AO2
KRBW 051335Z AUTO 32004KT 10SM CLR 07/01 A3008 RMK AO2
KRBW 051315Z AUTO 00000KT 10SM CLR 07/01 A3007 RMK AO2
KRBW 051255Z AUTO 31003KT 10SM CLR 05/01 A3006 RMK AO2
KRBW 051235Z AUTO 31003KT 10SM CLR 05/01 A3005 RMK AO2
KRBW 051215Z AUTO 32003KT 10SM CLR 05/01 A3004 RMK AO2
KRBW 051155Z AUTO 32003KT 10SM CLR 05/01 A3003 RMK AO2
KRBW 051135Z AUTO 30005KT 10SM CLR 06/01 A3002 RMK AO2
KRBW 051115Z AUTO 30005KT 10SM CLR 06/01 A3001 RMK AO2
KRBW 051055Z AUTO 29004KT 10SM CLR 06/01 A3001 RMK AO2
KRBW 051035Z AUTO 29006KT 10SM CLR 06/01 A2999 RMK AO2
KRBW 051015Z AUTO 30005KT 10SM CLR 07/01 A2998 RMK AO2
KRBW 050955Z AUTO 29007KT 10SM CLR 07/01 A2997 RMK AO2
KRBW 050935Z AUTO 28006KT 10SM CLR 07/01 A2996 RMK AO2
KRBW 050915Z AUTO 27006KT 10SM CLR 07/01 A2996 RMK AO2
KRBW 050855Z AUTO 27006KT 10SM CLR 07/01 A2995 RMK AO2
KRBW 050835Z AUTO 28005KT 10SM CLR 07/01 A2995 RMK AO2
KRBW 050815Z AUTO 28005KT 10SM CLR 08/01 A2994 RMK AO2
KRBW 050755Z AUTO 28006KT 10SM CLR 08/01 A2994 RMK AO2
KRBW 050735Z AUTO 28006KT 10SM CLR 08/01 A2994 RMK AO2
KRBW 050715Z AUTO 27007KT 10SM CLR 08/01 A2994 RMK AO2
KRBW 050655Z AUTO 28006KT 10SM CLR 08/01 A2993 RMK AO2
KRBW 050635Z AUTO 28008KT 10SM CLR 09/01 A2993 RMK AO2
KRBW 050615Z AUTO 28007KT 10SM CLR 09/01 A2992 RMK AO2
KRBW 050555Z AUTO 27006KT 10SM CLR 09/01 A2992 RMK AO2
KRBW 050535Z AUTO 27006KT 10SM CLR 09/01 A2993 RMK AO2
KRBW 050515Z AUTO 27007KT 10SM CLR 09/01 A2993 RMK AO2
KRBW 050455Z AUTO 27007KT 10SM CLR 08/01 A2992 RMK AO2
KRBW 050435Z AUTO 27007KT 10SM CLR 08/01 A2992 RMK AO2
KRBW 050415Z AUTO 26005KT 10SM CLR 08/01 A2992 RMK AO2
KRBW 050355Z AUTO 26004KT 10SM CLR 08/01 A2991 RMK AO2
KRBW 050335Z AUTO 26004KT 10SM CLR 08/01 A2991 RMK AO2
KRBW 050315Z AUTO 27004KT 10SM CLR 09/01 A2991 RMK AO2
KRBW 050255Z AUTO 26004KT 10SM CLR 09/01 A2991 RMK AO2
KRBW 050235Z AUTO 25005KT 10SM CLR 09/01 A2990 RMK AO2
KRBW 050215Z AUTO 25005KT 10SM CLR 10/01 A2990 RMK AO2
KRBW 050155Z AUTO 26005KT 10SM CLR 10/01 A2989 RMK AO2
KRBW 050135Z AUTO 26004KT 10SM CLR 10/01 A2989 RMK AO2
KRBW 050115Z AUTO 26004KT 10SM CLR 11/01 A2988 RMK AO2
KRBW 050055Z AUTO 25005KT 10SM CLR 11/01 A2989 RMK AO2
KRBW 050035Z AUTO 26006KT 10SM CLR 11/01 A2988 RMK AO2
KRBW 042355Z AUTO 25006KT 10SM CLR 11/01 A2986 RMK AO2
KRBW 042335Z AUTO 25006KT 10SM CLR 12/01 A2985 RMK AO2
KRBW 042315Z AUTO 25005KT 10SM CLR 12/01 A2985 RMK AO2
KRBW 042255Z AUTO 25004KT 10SM CLR 12/00 A2984 RMK AO2
KRBW 042235Z AUTO 27005KT 10SM CLR 13/00 A2983 RMK AO2
KRBW 042215Z AUTO 27007KT 10SM CLR 14/00 A2982 RMK AO2
KRBW 042155Z AUTO 27007G14KT 10SM CLR 15/00 A2982 RMK AO2
KRBW 042135Z AUTO 27009G15KT 10SM CLR 15/00 A2981 RMK AO2
KRBW 042115Z AUTO 27008KT 10SM CLR 16/00 A2980 RMK AO2
KRBW 042055Z AUTO 28009KT 10SM CLR 16/00 A2980 RMK AO2
KRBW 042035Z AUTO 28009G18KT 10SM CLR 16/00 A2980 RMK AO2
KRBW 042015Z AUTO 29007KT 10SM CLR 17/00 A2980 RMK AO2
KRBW 041955Z AUTO 27012KT 10SM CLR 16/00 A2979 RMK AO2
KRBW 041935Z AUTO 26007G17KT 10SM CLR 16/00 A2980 RMK AO2
KRBW 041915Z AUTO 26008G14KT 10SM CLR 16/00 A2979 RMK AO2
KRBW 041855Z AUTO 27011KT 10SM CLR 15/00 A2980 RMK AO2
KRBW 041835Z AUTO 26011KT 10SM CLR 15/00 A2980 RMK AO2
KRBW 041815Z AUTO 29007KT 10SM CLR 14/00 A2980 RMK AO2
KRBW 041755Z AUTO 25009KT 210V290 10SM CLR 14/00 A2981 RMK AO2
KRBW 041735Z AUTO 26008KT 10SM CLR 13/00 A2982 RMK AO2
KRBW 041715Z AUTO 25008KT 10SM CLR 13/00 A2984 RMK AO2
KRBW 041655Z AUTO 26007KT 10SM CLR 12/00 A2985 RMK AO2
KRBW 041635Z AUTO 25006KT 10SM CLR 12/00 A2987 RMK AO2
KRBW 041615Z AUTO 30005KT 10SM CLR 11/00 A2988 RMK AO2
KRBW 041555Z AUTO 26007KT 10SM CLR 10/00 A2988 RMK AO2
KRBW 041535Z AUTO 28007KT 10SM CLR 10/00 A2989 RMK AO2
KRBW 041515Z AUTO 30008KT 10SM CLR 08/00 A2989 RMK AO2
KRBW 041455Z AUTO 29007KT 10SM CLR 07/00 A2990 RMK AO2
KRBW 041435Z AUTO 29008KT 10SM CLR 07/00 A2990 RMK AO2
KRBW 041415Z AUTO 28010KT 10SM CLR 06/00 A2988 RMK AO2
KRBW 041355Z AUTO 27006KT 10SM CLR 05/00 A2987 RMK AO2